sensor_id;sensor_type;location;lat;lon;timestamp;P1;durP1;ratioP1;P2;durP2;ratioP2
49972;SDS011;71845;49.798;10.968;2023-11-19T00:01:07;2.30;;;1.30;;
49972;SDS011;71845;49.798;10.968;2023-11-19T00:03:35;2.83;;;1.20;;
49972;SDS011;71845;49.798;10.968;2023-11-19T00:06:01;1.80;;;0.90;;
49972;SDS011;71845;49.798;10.968;2023-11-19T00:08:29;1.95;;;1.10;;
49972;SDS011;71845;49.798;10.968;2023-11-19T00:10:56;1.85;;;1.10;;
49972;SDS011;71845;49.798;10.968;2023-11-19T00:13:22;1.88;;;0.95;;
49972;SDS011;71845;49.798;10.968;2023-11-19T00:15:51;1.98;;;1.10;;
49972;SDS011;71845;49.798;10.968;2023-11-19T00:18:19;1.63;;;1.15;;
49972;SDS011;71845;49.798;10.968;2023-11-19T00:20:45;2.10;;;1.10;;
49972;SDS011;71845;49.798;10.968;2023-11-19T00:23:12;1.83;;;1.10;;
49972;SDS011;71845;49.798;10.968;2023-11-19T00:25:39;2.00;;;0.95;;
49972;SDS011;71845;49.798;10.968;2023-11-19T00:28:05;1.67;;;1.08;;
49972;SDS011;71845;49.798;10.968;2023-11-19T00:30:32;2.50;;;1.40;;
49972;SDS011;71845;49.798;10.968;2023-11-19T00:32:58;1.65;;;0.90;;
49972;SDS011;71845;49.798;10.968;2023-11-19T00:35:26;3.50;;;1.15;;
49972;SDS011;71845;49.798;10.968;2023-11-19T00:37:53;1.95;;;1.08;;
49972;SDS011;71845;49.798;10.968;2023-11-19T00:40:20;1.63;;;1.15;;
49972;SDS011;71845;49.798;10.968;2023-11-19T00:42:48;2.70;;;0.90;;
49972;SDS011;71845;49.798;10.968;2023-11-19T00:45:16;1.67;;;1.00;;
49972;SDS011;71845;49.798;10.968;2023-11-19T00:47:42;1.98;;;1.08;;
49972;SDS011;71845;49.798;10.968;2023-11-19T00:50:09;2.47;;;1.00;;
49972;SDS011;71845;49.798;10.968;2023-11-19T00:52:39;1.48;;;0.98;;
49972;SDS011;71845;49.798;10.968;2023-11-19T00:55:06;1.75;;;0.90;;
49972;SDS011;71845;49.798;10.968;2023-11-19T00:57:33;2.47;;;1.05;;
49972;SDS011;71845;49.798;10.968;2023-11-19T01:00:00;2.13;;;0.93;;
49972;SDS011;71845;49.798;10.968;2023-11-19T01:02:28;2.20;;;1.05;;
49972;SDS011;71845;49.798;10.968;2023-11-19T01:04:54;1.83;;;1.10;;
49972;SDS011;71845;49.798;10.968;2023-11-19T01:07:21;2.45;;;1.17;;
49972;SDS011;71845;49.798;10.968;2023-11-19T01:09:50;2.35;;;1.20;;
49972;SDS011;71845;49.798;10.968;2023-11-19T01:12:17;1.75;;;1.08;;
49972;SDS011;71845;49.798;10.968;2023-11-19T01:14:44;1.88;;;1.00;;
49972;SDS011;71845;49.798;10.968;2023-11-19T01:17:11;1.30;;;1.00;;
49972;SDS011;71845;49.798;10.968;2023-11-19T01:19:38;1.45;;;0.82;;
49972;SDS011;71845;49.798;10.968;2023-11-19T01:22:05;1.48;;;0.95;;
49972;SDS011;71845;49.798;10.968;2023-11-19T01:24:31;1.75;;;1.00;;
49972;SDS011;71845;49.798;10.968;2023-11-19T01:26:59;2.20;;;1.20;;
49972;SDS011;71845;49.798;10.968;2023-11-19T01:29:26;1.70;;;1.00;;
49972;SDS011;71845;49.798;10.968;2023-11-19T01:31:52;1.45;;;1.00;;
49972;SDS011;71845;49.798;10.968;2023-11-19T01:34:19;2.33;;;1.05;;
49972;SDS011;71845;49.798;10.968;2023-11-19T01:36:46;1.67;;;1.10;;
49972;SDS011;71845;49.798;10.968;2023-11-19T01:39:14;2.88;;;0.80;;
49972;SDS011;71845;49.798;10.968;2023-11-19T01:41:42;1.95;;;0.80;;
49972;SDS011;71845;49.798;10.968;2023-11-19T01:44:10;2.10;;;1.20;;
49972;SDS011;71845;49.798;10.968;2023-11-19T01:46:40;2.08;;;1.20;;
49972;SDS011;71845;49.798;10.968;2023-11-19T01:49:08;1.70;;;1.10;;
49972;SDS011;71845;49.798;10.968;2023-11-19T01:51:36;3.45;;;1.35;;
49972;SDS011;71845;49.798;10.968;2023-11-19T01:54:04;2.30;;;0.98;;
49972;SDS011;71845;49.798;10.968;2023-11-19T01:56:31;2.28;;;1.17;;
49972;SDS011;71845;49.798;10.968;2023-11-19T01:58:58;1.92;;;1.13;;
49972;SDS011;71845;49.798;10.968;2023-11-19T02:01:31;2.15;;;1.10;;
49972;SDS011;71845;49.798;10.968;2023-11-19T02:04:01;2.55;;;1.42;;
49972;SDS011;71845;49.798;10.968;2023-11-19T02:06:29;2.55;;;1.40;;
49972;SDS011;71845;49.798;10.968;2023-11-19T02:08:57;2.83;;;1.20;;
49972;SDS011;71845;49.798;10.968;2023-11-19T02:11:24;2.42;;;1.00;;
49972;SDS011;71845;49.798;10.968;2023-11-19T02:13:54;2.45;;;1.30;;
49972;SDS011;71845;49.798;10.968;2023-11-19T02:16:21;1.80;;;1.10;;
49972;SDS011;71845;49.798;10.968;2023-11-19T02:18:49;2.35;;;1.23;;
49972;SDS011;71845;49.798;10.968;2023-11-19T02:21:16;2.80;;;1.30;;
49972;SDS011;71845;49.798;10.968;2023-11-19T02:23:43;2.38;;;1.35;;
49972;SDS011;71845;49.798;10.968;2023-11-19T02:26:12;2.58;;;1.40;;
49972;SDS011;71845;49.798;10.968;2023-11-19T02:28:45;3.85;;;1.60;;
49972;SDS011;71845;49.798;10.968;2023-11-19T02:31:13;3.95;;;1.38;;
49972;SDS011;71845;49.798;10.968;2023-11-19T02:33:40;1.83;;;1.27;;
49972;SDS011;71845;49.798;10.968;2023-11-19T02:36:07;3.03;;;1.27;;
49972;SDS011;71845;49.798;10.968;2023-11-19T02:38:35;2.33;;;1.33;;
49972;SDS011;71845;49.798;10.968;2023-11-19T02:41:03;3.10;;;1.50;;
49972;SDS011;71845;49.798;10.968;2023-11-19T02:43:31;2.08;;;1.30;;
49972;SDS011;71845;49.798;10.968;2023-11-19T02:45:59;2.45;;;1.30;;
49972;SDS011;71845;49.798;10.968;2023-11-19T02:48:26;4.25;;;1.48;;
49972;SDS011;71845;49.798;10.968;2023-11-19T02:50:53;3.15;;;1.60;;
49972;SDS011;71845;49.798;10.968;2023-11-19T02:53:22;2.97;;;1.35;;
49972;SDS011;71845;49.798;10.968;2023-11-19T02:55:49;2.65;;;1.70;;
49972;SDS011;71845;49.798;10.968;2023-11-19T02:58:16;2.05;;;1.27;;
49972;SDS011;71845;49.798;10.968;2023-11-19T03:00:48;2.35;;;1.50;;
49972;SDS011;71845;49.798;10.968;2023-11-19T03:03:23;3.03;;;1.30;;
49972;SDS011;71845;49.798;10.968;2023-11-19T03:05:56;2.72;;;1.65;;
49972;SDS011;71845;49.798;10.968;2023-11-19T03:08:22;2.33;;;1.40;;
49972;SDS011;71845;49.798;10.968;2023-11-19T03:10:49;2.75;;;1.60;;
49972;SDS011;71845;49.798;10.968;2023-11-19T03:13:16;2.38;;;1.40;;
49972;SDS011;71845;49.798;10.968;2023-11-19T03:15:44;2.13;;;1.30;;
49972;SDS011;71845;49.798;10.968;2023-11-19T03:18:11;2.80;;;1.40;;
49972;SDS011;71845;49.798;10.968;2023-11-19T03:20:39;1.48;;;0.90;;
49972;SDS011;71845;49.798;10.968;2023-11-19T03:23:06;1.98;;;1.00;;
49972;SDS011;71845;49.798;10.968;2023-11-19T03:25:32;1.70;;;1.10;;
49972;SDS011;71845;49.798;10.968;2023-11-19T03:27:59;2.15;;;1.10;;
49972;SDS011;71845;49.798;10.968;2023-11-19T03:30:26;1.40;;;0.90;;
49972;SDS011;71845;49.798;10.968;2023-11-19T03:32:54;1.88;;;1.13;;
49972;SDS011;71845;49.798;10.968;2023-11-19T03:35:21;1.63;;;0.80;;
49972;SDS011;71845;49.798;10.968;2023-11-19T03:37:49;1.73;;;0.85;;
49972;SDS011;71845;49.798;10.968;2023-11-19T03:40:16;1.45;;;0.80;;
49972;SDS011;71845;49.798;10.968;2023-11-19T03:42:44;2.00;;;0.88;;
49972;SDS011;71845;49.798;10.968;2023-11-19T03:45:10;1.17;;;0.80;;
49972;SDS011;71845;49.798;10.968;2023-11-19T03:47:37;1.42;;;0.88;;
49972;SDS011;71845;49.798;10.968;2023-11-19T03:50:05;1.25;;;0.98;;
49972;SDS011;71845;49.798;10.968;2023-11-19T03:52:33;1.08;;;0.70;;
49972;SDS011;71845;49.798;10.968;2023-11-19T03:55:02;1.52;;;0.88;;
49972;SDS011;71845;49.798;10.968;2023-11-19T03:57:29;2.38;;;0.88;;
49972;SDS011;71845;49.798;10.968;2023-11-19T03:59:55;1.90;;;1.35;;
49972;SDS011;71845;49.798;10.968;2023-11-19T04:02:24;2.08;;;1.20;;
49972;SDS011;71845;49.798;10.968;2023-11-19T04:04:53;2.72;;;1.02;;
49972;SDS011;71845;49.798;10.968;2023-11-19T04:07:21;2.50;;;1.05;;
49972;SDS011;71845;49.798;10.968;2023-11-19T04:09:47;2.00;;;1.13;;
49972;SDS011;71845;49.798;10.968;2023-11-19T04:12:15;2.47;;;1.60;;
49972;SDS011;71845;49.798;10.968;2023-11-19T04:14:43;1.70;;;1.00;;
49972;SDS011;71845;49.798;10.968;2023-11-19T04:17:10;2.08;;;1.30;;
49972;SDS011;71845;49.798;10.968;2023-11-19T04:19:36;1.60;;;1.05;;
49972;SDS011;71845;49.798;10.968;2023-11-19T04:22:05;2.00;;;1.33;;
49972;SDS011;71845;49.798;10.968;2023-11-19T04:24:33;2.10;;;1.23;;
49972;SDS011;71845;49.798;10.968;2023-11-19T04:27:00;2.55;;;1.48;;
49972;SDS011;71845;49.798;10.968;2023-11-19T04:29:29;2.00;;;1.17;;
49972;SDS011;71845;49.798;10.968;2023-11-19T04:31:56;2.97;;;1.10;;
49972;SDS011;71845;49.798;10.968;2023-11-19T04:34:23;2.42;;;1.45;;
49972;SDS011;71845;49.798;10.968;2023-11-19T04:36:50;3.08;;;1.40;;
49972;SDS011;71845;49.798;10.968;2023-11-19T04:39:17;2.58;;;1.40;;
49972;SDS011;71845;49.798;10.968;2023-11-19T04:41:45;5.13;;;1.42;;
49972;SDS011;71845;49.798;10.968;2023-11-19T04:44:13;2.40;;;1.40;;
49972;SDS011;71845;49.798;10.968;2023-11-19T04:46:42;2.90;;;1.77;;
49972;SDS011;71845;49.798;10.968;2023-11-19T04:49:11;2.30;;;1.55;;
49972;SDS011;71845;49.798;10.968;2023-11-19T04:51:38;2.90;;;1.80;;
49972;SDS011;71845;49.798;10.968;2023-11-19T04:54:07;2.30;;;1.63;;
49972;SDS011;71845;49.798;10.968;2023-11-19T04:56:34;2.95;;;1.90;;
49972;SDS011;71845;49.798;10.968;2023-11-19T04:59:01;2.47;;;1.52;;
49972;SDS011;71845;49.798;10.968;2023-11-19T05:01:27;3.33;;;1.90;;
49972;SDS011;71845;49.798;10.968;2023-11-19T05:03:56;3.40;;;2.00;;
49972;SDS011;71845;49.798;10.968;2023-11-19T05:06:25;3.47;;;1.90;;
49972;SDS011;71845;49.798;10.968;2023-11-19T05:08:53;3.80;;;2.30;;
49972;SDS011;71845;49.798;10.968;2023-11-19T05:11:20;4.18;;;1.98;;
49972;SDS011;71845;49.798;10.968;2023-11-19T05:13:46;2.60;;;1.60;;
49972;SDS011;71845;49.798;10.968;2023-11-19T05:16:13;2.83;;;1.80;;
49972;SDS011;71845;49.798;10.968;2023-11-19T05:18:40;4.25;;;1.98;;
49972;SDS011;71845;49.798;10.968;2023-11-19T05:21:08;3.10;;;1.80;;
49972;SDS011;71845;49.798;10.968;2023-11-19T05:23:34;3.42;;;2.20;;
49972;SDS011;71845;49.798;10.968;2023-11-19T05:26:01;4.05;;;2.20;;
49972;SDS011;71845;49.798;10.968;2023-11-19T05:28:28;3.15;;;1.90;;
49972;SDS011;71845;49.798;10.968;2023-11-19T05:30:54;3.35;;;2.08;;
49972;SDS011;71845;49.798;10.968;2023-11-19T05:33:21;3.30;;;2.15;;
49972;SDS011;71845;49.798;10.968;2023-11-19T05:35:47;3.83;;;2.08;;
49972;SDS011;71845;49.798;10.968;2023-11-19T05:38:18;3.70;;;2.28;;
49972;SDS011;71845;49.798;10.968;2023-11-19T05:40:46;4.60;;;2.20;;
49972;SDS011;71845;49.798;10.968;2023-11-19T05:43:13;3.97;;;2.30;;
49972;SDS011;71845;49.798;10.968;2023-11-19T05:45:40;4.25;;;2.28;;
49972;SDS011;71845;49.798;10.968;2023-11-19T05:48:06;4.53;;;2.33;;
49972;SDS011;71845;49.798;10.968;2023-11-19T05:50:34;3.83;;;2.38;;
49972;SDS011;71845;49.798;10.968;2023-11-19T05:53:01;4.03;;;2.47;;
49972;SDS011;71845;49.798;10.968;2023-11-19T05:55:28;4.75;;;2.50;;
49972;SDS011;71845;49.798;10.968;2023-11-19T05:57:56;4.60;;;2.60;;
49972;SDS011;71845;49.798;10.968;2023-11-19T06:00:22;4.30;;;2.53;;
49972;SDS011;71845;49.798;10.968;2023-11-19T06:02:49;3.85;;;2.20;;
49972;SDS011;71845;49.798;10.968;2023-11-19T06:05:16;3.55;;;2.00;;
49972;SDS011;71845;49.798;10.968;2023-11-19T06:07:43;4.45;;;2.35;;
49972;SDS011;71845;49.798;10.968;2023-11-19T06:10:11;4.82;;;2.78;;
49972;SDS011;71845;49.798;10.968;2023-11-19T06:12:42;4.35;;;2.58;;
49972;SDS011;71845;49.798;10.968;2023-11-19T06:15:11;4.60;;;2.40;;
49972;SDS011;71845;49.798;10.968;2023-11-19T06:17:38;4.15;;;2.55;;
49972;SDS011;71845;49.798;10.968;2023-11-19T06:20:05;5.45;;;2.38;;
49972;SDS011;71845;49.798;10.968;2023-11-19T06:22:32;5.80;;;2.72;;
49972;SDS011;71845;49.798;10.968;2023-11-19T06:25:01;5.88;;;2.60;;
49972;SDS011;71845;49.798;10.968;2023-11-19T06:27:32;4.45;;;2.70;;
49972;SDS011;71845;49.798;10.968;2023-11-19T06:30:00;5.07;;;2.63;;
49972;SDS011;71845;49.798;10.968;2023-11-19T06:32:26;5.13;;;3.13;;
49972;SDS011;71845;49.798;10.968;2023-11-19T06:34:53;5.22;;;3.03;;
49972;SDS011;71845;49.798;10.968;2023-11-19T06:37:20;4.63;;;2.63;;
49972;SDS011;71845;49.798;10.968;2023-11-19T06:39:48;4.88;;;2.63;;
49972;SDS011;71845;49.798;10.968;2023-11-19T06:42:15;5.80;;;2.60;;
49972;SDS011;71845;49.798;10.968;2023-11-19T06:44:42;4.47;;;2.50;;
49972;SDS011;71845;49.798;10.968;2023-11-19T06:47:10;4.03;;;1.98;;
49972;SDS011;71845;49.798;10.968;2023-11-19T06:49:36;4.07;;;2.15;;
49972;SDS011;71845;49.798;10.968;2023-11-19T06:52:03;4.75;;;2.40;;
49972;SDS011;71845;49.798;10.968;2023-11-19T06:54:30;3.67;;;2.05;;
49972;SDS011;71845;49.798;10.968;2023-11-19T06:56:56;3.97;;;2.45;;
49972;SDS011;71845;49.798;10.968;2023-11-19T06:59:23;4.70;;;2.47;;
49972;SDS011;71845;49.798;10.968;2023-11-19T07:01:49;4.07;;;2.40;;
49972;SDS011;71845;49.798;10.968;2023-11-19T07:04:18;3.58;;;2.30;;
49972;SDS011;71845;49.798;10.968;2023-11-19T07:06:44;5.25;;;2.10;;
49972;SDS011;71845;49.798;10.968;2023-11-19T07:09:11;4.07;;;2.28;;
49972;SDS011;71845;49.798;10.968;2023-11-19T07:11:40;4.20;;;2.58;;
49972;SDS011;71845;49.798;10.968;2023-11-19T07:14:08;5.63;;;2.28;;
49972;SDS011;71845;49.798;10.968;2023-11-19T07:16:34;4.43;;;1.90;;
49972;SDS011;71845;49.798;10.968;2023-11-19T07:19:02;5.07;;;2.67;;
49972;SDS011;71845;49.798;10.968;2023-11-19T07:21:30;5.05;;;2.75;;
49972;SDS011;71845;49.798;10.968;2023-11-19T07:23:57;5.78;;;3.28;;
49972;SDS011;71845;49.798;10.968;2023-11-19T07:26:24;4.10;;;2.33;;
49972;SDS011;71845;49.798;10.968;2023-11-19T07:28:52;4.57;;;2.50;;
49972;SDS011;71845;49.798;10.968;2023-11-19T07:31:18;4.30;;;2.33;;
49972;SDS011;71845;49.798;10.968;2023-11-19T07:33:45;3.75;;;2.10;;
49972;SDS011;71845;49.798;10.968;2023-11-19T07:36:12;2.90;;;1.65;;
49972;SDS011;71845;49.798;10.968;2023-11-19T07:38:41;1.73;;;0.90;;
49972;SDS011;71845;49.798;10.968;2023-11-19T07:41:08;2.13;;;0.80;;
49972;SDS011;71845;49.798;10.968;2023-11-19T07:43:38;1.27;;;0.70;;
49972;SDS011;71845;49.798;10.968;2023-11-19T07:46:05;1.52;;;0.57;;
49972;SDS011;71845;49.798;10.968;2023-11-19T07:48:36;1.30;;;0.73;;
49972;SDS011;71845;49.798;10.968;2023-11-19T07:51:05;1.33;;;0.70;;
49972;SDS011;71845;49.798;10.968;2023-11-19T07:53:32;2.10;;;0.73;;
49972;SDS011;71845;49.798;10.968;2023-11-19T07:56:00;1.73;;;0.70;;
49972;SDS011;71845;49.798;10.968;2023-11-19T07:58:27;1.20;;;0.55;;
49972;SDS011;71845;49.798;10.968;2023-11-19T08:00:53;6.47;;;2.95;;
49972;SDS011;71845;49.798;10.968;2023-11-19T08:03:20;6.07;;;3.42;;
49972;SDS011;71845;49.798;10.968;2023-11-19T08:05:47;5.65;;;3.28;;
49972;SDS011;71845;49.798;10.968;2023-11-19T08:08:13;8.18;;;4.13;;
49972;SDS011;71845;49.798;10.968;2023-11-19T08:10:41;7.75;;;3.88;;
49972;SDS011;71845;49.798;10.968;2023-11-19T08:13:09;6.70;;;4.13;;
49972;SDS011;71845;49.798;10.968;2023-11-19T08:15:36;7.85;;;3.95;;
49972;SDS011;71845;49.798;10.968;2023-11-19T08:18:03;6.25;;;3.85;;
49972;SDS011;71845;49.798;10.968;2023-11-19T08:20:30;7.32;;;3.80;;
49972;SDS011;71845;49.798;10.968;2023-11-19T08:22:56;3.92;;;2.00;;
49972;SDS011;71845;49.798;10.968;2023-11-19T08:25:23;1.55;;;0.80;;
49972;SDS011;71845;49.798;10.968;2023-11-19T08:27:54;1.92;;;1.00;;
49972;SDS011;71845;49.798;10.968;2023-11-19T08:30:23;1.95;;;0.90;;
49972;SDS011;71845;49.798;10.968;2023-11-19T08:32:49;1.52;;;0.73;;
49972;SDS011;71845;49.798;10.968;2023-11-19T08:35:16;1.08;;;0.70;;
49972;SDS011;71845;49.798;10.968;2023-11-19T08:37:42;6.13;;;2.08;;
49972;SDS011;71845;49.798;10.968;2023-11-19T08:40:11;2.63;;;1.45;;
49972;SDS011;71845;49.798;10.968;2023-11-19T08:42:40;2.75;;;1.40;;
49972;SDS011;71845;49.798;10.968;2023-11-19T08:45:07;3.15;;;1.33;;
49972;SDS011;71845;49.798;10.968;2023-11-19T08:47:36;2.33;;;1.35;;
49972;SDS011;71845;49.798;10.968;2023-11-19T08:50:03;2.58;;;1.40;;
49972;SDS011;71845;49.798;10.968;2023-11-19T08:52:30;2.95;;;1.45;;
49972;SDS011;71845;49.798;10.968;2023-11-19T08:54:57;3.97;;;2.20;;
49972;SDS011;71845;49.798;10.968;2023-11-19T08:57:23;4.20;;;1.90;;
49972;SDS011;71845;49.798;10.968;2023-11-19T08:59:50;3.42;;;1.63;;
49972;SDS011;71845;49.798;10.968;2023-11-19T09:02:16;4.85;;;2.00;;
49972;SDS011;71845;49.798;10.968;2023-11-19T09:04:45;6.00;;;2.95;;
49972;SDS011;71845;49.798;10.968;2023-11-19T09:07:11;10.98;;;4.38;;
49972;SDS011;71845;49.798;10.968;2023-11-19T09:09:38;8.00;;;3.85;;
49972;SDS011;71845;49.798;10.968;2023-11-19T09:12:05;9.20;;;3.72;;
49972;SDS011;71845;49.798;10.968;2023-11-19T09:14:32;3.92;;;1.98;;
49972;SDS011;71845;49.798;10.968;2023-11-19T09:16:59;2.85;;;1.30;;
49972;SDS011;71845;49.798;10.968;2023-11-19T09:19:26;3.30;;;1.40;;
49972;SDS011;71845;49.798;10.968;2023-11-19T09:21:54;3.33;;;1.50;;
49972;SDS011;71845;49.798;10.968;2023-11-19T09:24:22;3.58;;;1.90;;
49972;SDS011;71845;49.798;10.968;2023-11-19T09:26:50;1.98;;;0.82;;
49972;SDS011;71845;49.798;10.968;2023-11-19T09:29:20;3.05;;;1.42;;
49972;SDS011;71845;49.798;10.968;2023-11-19T09:31:46;1.50;;;0.80;;
49972;SDS011;71845;49.798;10.968;2023-11-19T09:34:13;0.75;;;0.47;;
49972;SDS011;71845;49.798;10.968;2023-11-19T09:36:43;1.33;;;0.52;;
49972;SDS011;71845;49.798;10.968;2023-11-19T09:39:11;0.20;;;0.20;;
49972;SDS011;71845;49.798;10.968;2023-11-19T09:41:39;0.55;;;0.35;;
49972;SDS011;71845;49.798;10.968;2023-11-19T09:44:07;0.52;;;0.40;;
49972;SDS011;71845;49.798;10.968;2023-11-19T09:46:34;1.23;;;0.47;;
49972;SDS011;71845;49.798;10.968;2023-11-19T09:49:01;0.85;;;0.50;;
49972;SDS011;71845;49.798;10.968;2023-11-19T09:51:29;0.70;;;0.45;;
49972;SDS011;71845;49.798;10.968;2023-11-19T09:53:56;1.50;;;0.70;;
49972;SDS011;71845;49.798;10.968;2023-11-19T09:56:24;0.82;;;0.52;;
49972;SDS011;71845;49.798;10.968;2023-11-19T09:58:52;1.15;;;0.65;;
49972;SDS011;71845;49.798;10.968;2023-11-19T10:01:19;4.15;;;0.88;;
49972;SDS011;71845;49.798;10.968;2023-11-19T10:03:46;0.77;;;0.60;;
49972;SDS011;71845;49.798;10.968;2023-11-19T10:06:16;1.08;;;0.88;;
49972;SDS011;71845;49.798;10.968;2023-11-19T10:08:44;2.88;;;1.10;;
49972;SDS011;71845;49.798;10.968;2023-11-19T10:11:11;2.20;;;0.90;;
49972;SDS011;71845;49.798;10.968;2023-11-19T10:13:39;2.00;;;0.85;;
49972;SDS011;71845;49.798;10.968;2023-11-19T10:16:08;2.30;;;0.90;;
49972;SDS011;71845;49.798;10.968;2023-11-19T10:18:36;1.48;;;0.68;;
49972;SDS011;71845;49.798;10.968;2023-11-19T10:21:03;2.75;;;1.00;;
49972;SDS011;71845;49.798;10.968;2023-11-19T10:23:31;1.08;;;0.80;;
49972;SDS011;71845;49.798;10.968;2023-11-19T10:26:14;1.58;;;0.80;;
49972;SDS011;71845;49.798;10.968;2023-11-19T10:28:41;1.98;;;1.05;;
49972;SDS011;71845;49.798;10.968;2023-11-19T10:31:11;2.95;;;0.85;;
49972;SDS011;71845;49.798;10.968;2023-11-19T10:33:39;4.03;;;0.90;;
49972;SDS011;71845;49.798;10.968;2023-11-19T10:36:05;3.20;;;0.95;;
49972;SDS011;71845;49.798;10.968;2023-11-19T10:38:33;1.85;;;0.88;;
49972;SDS011;71845;49.798;10.968;2023-11-19T10:40:59;1.33;;;0.70;;
49972;SDS011;71845;49.798;10.968;2023-11-19T10:43:26;5.72;;;1.98;;
49972;SDS011;71845;49.798;10.968;2023-11-19T10:45:54;2.35;;;0.98;;
49972;SDS011;71845;49.798;10.968;2023-11-19T10:48:35;2.15;;;0.88;;
49972;SDS011;71845;49.798;10.968;2023-11-19T10:51:02;2.63;;;0.70;;
49972;SDS011;71845;49.798;10.968;2023-11-19T10:53:33;2.45;;;0.70;;
49972;SDS011;71845;49.798;10.968;2023-11-19T10:56:02;2.38;;;0.80;;
49972;SDS011;71845;49.798;10.968;2023-11-19T10:58:33;1.70;;;0.80;;
49972;SDS011;71845;49.798;10.968;2023-11-19T11:01:06;1.52;;;0.50;;
49972;SDS011;71845;49.798;10.968;2023-11-19T11:03:38;3.00;;;1.00;;
49972;SDS011;71845;49.798;10.968;2023-11-19T11:06:06;2.05;;;0.73;;
49972;SDS011;71845;49.798;10.968;2023-11-19T11:08:34;2.25;;;1.00;;
49972;SDS011;71845;49.798;10.968;2023-11-19T11:11:03;1.65;;;0.77;;
49972;SDS011;71845;49.798;10.968;2023-11-19T11:13:31;5.50;;;1.00;;
49972;SDS011;71845;49.798;10.968;2023-11-19T11:15:59;2.00;;;0.80;;
49972;SDS011;71845;49.798;10.968;2023-11-19T11:18:27;2.97;;;0.93;;
49972;SDS011;71845;49.798;10.968;2023-11-19T11:20:54;3.55;;;0.75;;
49972;SDS011;71845;49.798;10.968;2023-11-19T11:23:37;2.45;;;0.80;;
49972;SDS011;71845;49.798;10.968;2023-11-19T11:29:26;3.30;;;0.80;;
49972;SDS011;71845;49.798;10.968;2023-11-19T11:32:03;1.70;;;0.70;;
49972;SDS011;71845;49.798;10.968;2023-11-19T11:34:48;1.45;;;0.73;;
49972;SDS011;71845;49.798;10.968;2023-11-19T11:37:32;2.38;;;0.85;;
49972;SDS011;71845;49.798;10.968;2023-11-19T11:40:01;2.60;;;0.80;;
49972;SDS011;71845;49.798;10.968;2023-11-19T11:42:35;1.50;;;0.65;;
49972;SDS011;71845;49.798;10.968;2023-11-19T11:45:03;3.35;;;0.93;;
49972;SDS011;71845;49.798;10.968;2023-11-19T11:53:30;2.25;;;0.55;;
49972;SDS011;71845;49.798;10.968;2023-11-19T11:56:02;4.05;;;0.70;;
49972;SDS011;71845;49.798;10.968;2023-11-19T11:58:29;2.33;;;0.63;;
49972;SDS011;71845;49.798;10.968;2023-11-19T12:01:03;2.17;;;0.77;;
49972;SDS011;71845;49.798;10.968;2023-11-19T12:03:31;2.13;;;0.50;;
49972;SDS011;71845;49.798;10.968;2023-11-19T12:05:59;1.65;;;0.70;;
49972;SDS011;71845;49.798;10.968;2023-11-19T12:08:28;1.98;;;0.70;;
49972;SDS011;71845;49.798;10.968;2023-11-19T12:10:57;1.23;;;0.63;;
49972;SDS011;71845;49.798;10.968;2023-11-19T12:13:24;1.85;;;0.70;;
49972;SDS011;71845;49.798;10.968;2023-11-19T12:16:08;1.27;;;0.63;;
49972;SDS011;71845;49.798;10.968;2023-11-19T12:18:37;2.03;;;0.70;;
49972;SDS011;71845;49.798;10.968;2023-11-19T12:21:05;1.88;;;0.70;;
49972;SDS011;71845;49.798;10.968;2023-11-19T12:23:35;0.73;;;0.50;;
49972;SDS011;71845;49.798;10.968;2023-11-19T12:26:20;3.00;;;0.77;;
49972;SDS011;71845;49.798;10.968;2023-11-19T12:28:58;1.17;;;0.55;;
49972;SDS011;71845;49.798;10.968;2023-11-19T12:31:25;1.15;;;0.60;;
49972;SDS011;71845;49.798;10.968;2023-11-19T12:33:52;2.00;;;0.60;;
49972;SDS011;71845;49.798;10.968;2023-11-19T12:36:19;1.85;;;0.85;;
49972;SDS011;71845;49.798;10.968;2023-11-19T12:38:48;2.25;;;0.73;;
49972;SDS011;71845;49.798;10.968;2023-11-19T12:41:15;1.15;;;0.80;;
49972;SDS011;71845;49.798;10.968;2023-11-19T12:43:45;3.15;;;0.80;;
49972;SDS011;71845;49.798;10.968;2023-11-19T12:46:18;1.58;;;0.80;;
49972;SDS011;71845;49.798;10.968;2023-11-19T12:48:45;2.70;;;0.90;;
49972;SDS011;71845;49.798;10.968;2023-11-19T12:51:12;1.13;;;0.70;;
49972;SDS011;71845;49.798;10.968;2023-11-19T12:53:48;3.80;;;1.10;;
49972;SDS011;71845;49.798;10.968;2023-11-19T12:56:18;2.63;;;0.70;;
49972;SDS011;71845;49.798;10.968;2023-11-19T12:58:46;2.63;;;0.80;;
49972;SDS011;71845;49.798;10.968;2023-11-19T13:01:15;2.10;;;0.73;;
49972;SDS011;71845;49.798;10.968;2023-11-19T13:03:45;2.22;;;0.77;;
49972;SDS011;71845;49.798;10.968;2023-11-19T13:06:14;3.35;;;0.70;;
49972;SDS011;71845;49.798;10.968;2023-11-19T13:08:41;4.20;;;0.90;;
49972;SDS011;71845;49.798;10.968;2023-11-19T13:11:11;3.22;;;0.75;;
49972;SDS011;71845;49.798;10.968;2023-11-19T13:13:55;7.00;;;2.17;;
49972;SDS011;71845;49.798;10.968;2023-11-19T13:16:22;4.63;;;1.35;;
49972;SDS011;71845;49.798;10.968;2023-11-19T13:18:49;3.60;;;0.90;;
49972;SDS011;71845;49.798;10.968;2023-11-19T13:21:16;2.33;;;0.80;;
49972;SDS011;71845;49.798;10.968;2023-11-19T13:23:43;5.60;;;1.05;;
49972;SDS011;71845;49.798;10.968;2023-11-19T13:26:11;6.55;;;2.30;;
49972;SDS011;71845;49.798;10.968;2023-11-19T13:28:38;5.13;;;1.85;;
49972;SDS011;71845;49.798;10.968;2023-11-19T13:31:05;6.93;;;2.58;;
49972;SDS011;71845;49.798;10.968;2023-11-19T13:33:32;6.28;;;2.58;;
49972;SDS011;71845;49.798;10.968;2023-11-19T13:35:59;4.30;;;1.88;;
49972;SDS011;71845;49.798;10.968;2023-11-19T13:38:30;4.65;;;1.40;;
49972;SDS011;71845;49.798;10.968;2023-11-19T13:40:57;4.88;;;1.92;;
49972;SDS011;71845;49.798;10.968;2023-11-19T13:43:25;4.13;;;1.00;;
49972;SDS011;71845;49.798;10.968;2023-11-19T13:45:53;3.45;;;1.05;;
49972;SDS011;71845;49.798;10.968;2023-11-19T13:48:19;2.92;;;1.40;;
49972;SDS011;71845;49.798;10.968;2023-11-19T13:50:48;3.00;;;1.27;;
49972;SDS011;71845;49.798;10.968;2023-11-19T13:53:15;2.15;;;0.90;;
49972;SDS011;71845;49.798;10.968;2023-11-19T13:55:41;2.33;;;0.60;;
49972;SDS011;71845;49.798;10.968;2023-11-19T13:58:08;1.83;;;0.80;;
49972;SDS011;71845;49.798;10.968;2023-11-19T14:00:36;2.30;;;0.90;;
49972;SDS011;71845;49.798;10.968;2023-11-19T14:03:04;4.88;;;0.90;;
49972;SDS011;71845;49.798;10.968;2023-11-19T14:05:30;2.60;;;0.82;;
49972;SDS011;71845;49.798;10.968;2023-11-19T14:07:57;5.32;;;0.90;;
49972;SDS011;71845;49.798;10.968;2023-11-19T14:10:24;3.72;;;1.08;;
49972;SDS011;71845;49.798;10.968;2023-11-19T14:12:50;3.33;;;0.90;;
49972;SDS011;71845;49.798;10.968;2023-11-19T14:15:17;3.15;;;0.80;;
49972;SDS011;71845;49.798;10.968;2023-11-19T14:17:46;3.40;;;1.00;;
49972;SDS011;71845;49.798;10.968;2023-11-19T14:20:14;5.80;;;1.10;;
49972;SDS011;71845;49.798;10.968;2023-11-19T14:22:43;4.97;;;1.27;;
49972;SDS011;71845;49.798;10.968;2023-11-19T14:25:10;5.63;;;2.55;;
49972;SDS011;71845;49.798;10.968;2023-11-19T14:27:38;4.65;;;1.27;;
49972;SDS011;71845;49.798;10.968;2023-11-19T14:30:06;6.57;;;2.20;;
49972;SDS011;71845;49.798;10.968;2023-11-19T14:32:35;5.50;;;2.00;;
49972;SDS011;71845;49.798;10.968;2023-11-19T14:35:03;3.50;;;1.20;;
49972;SDS011;71845;49.798;10.968;2023-11-19T14:37:33;3.53;;;1.40;;
49972;SDS011;71845;49.798;10.968;2023-11-19T14:40:00;3.67;;;0.98;;
49972;SDS011;71845;49.798;10.968;2023-11-19T14:42:29;4.25;;;1.00;;
49972;SDS011;71845;49.798;10.968;2023-11-19T14:44:55;2.75;;;0.90;;
49972;SDS011;71845;49.798;10.968;2023-11-19T14:47:23;2.13;;;0.80;;